createdAt,value
2019-05-02T00:01:40.146Z,20.70
2019-05-02T00:04:21.289Z,20.20
2019-05-02T00:07:08.993Z,20.07
2019-05-02T00:09:50.441Z,20.20
2019-05-02T00:12:30.732Z,17.70
2019-05-02T00:15:12.921Z,17.03
2019-05-02T00:17:52.558Z,17.40
2019-05-02T00:20:32.724Z,17.53
2019-05-02T00:23:13.623Z,25.93
2019-05-02T00:25:54.517Z,35.27
2019-05-02T00:28:34.622Z,23.87
2019-05-02T00:31:17.412Z,31.70
2019-05-02T00:33:57.673Z,25.90
2019-05-02T00:36:37.139Z,29.10
2019-05-02T00:39:17.555Z,54.43
2019-05-02T00:41:57.311Z,22.40
2019-05-02T00:44:37.605Z,16.50
2019-05-02T00:50:40.451Z,39.30
2019-05-02T00:53:19.858Z,30.73
2019-05-02T00:56:00.305Z,24.50
2019-05-02T00:58:40.381Z,18.77
2019-05-02T01:01:46.209Z,17.73
2019-05-02T01:04:32.517Z,16.57
2019-05-02T01:07:13.377Z,16.97
2019-05-02T01:09:53.386Z,36.67
2019-05-02T01:12:33.293Z,20.67
2019-05-02T01:15:13.373Z,32.73
2019-05-02T01:17:53.885Z,20.77
2019-05-02T01:20:34.890Z,20.03
2019-05-02T01:23:14.906Z,18.60
2019-05-02T01:25:54.977Z,18.10
2019-05-02T01:28:55.684Z,15.27
2019-05-02T01:38:17.178Z,26.70
2019-05-02T01:40:59.127Z,25.00
2019-05-02T01:43:39.553Z,27.83
2019-05-02T01:46:22.260Z,86.10
2019-05-02T01:49:02.368Z,27.33
2019-05-02T01:51:47.338Z,15.80
2019-05-02T01:54:24.637Z,15.13
2019-05-02T01:57:08.808Z,13.77
2019-05-02T01:59:46.700Z,14.03
2019-05-02T02:02:28.067Z,13.30
2019-05-02T02:05:09.277Z,13.93
2019-05-02T02:07:50.796Z,14.70
2019-05-02T02:10:31.306Z,14.30
2019-05-02T02:13:11.578Z,26.53
2019-05-02T02:15:51.625Z,78.13
2019-05-02T02:18:35.260Z,31.10
2019-05-02T02:24:26.430Z,28.70
2019-05-02T02:27:27.685Z,17.50
2019-05-02T02:30:07.668Z,14.37
2019-05-02T02:32:47.646Z,15.60
2019-05-02T02:35:28.019Z,13.10
2019-05-02T02:38:08.239Z,13.73
2019-05-02T02:40:48.449Z,14.80
2019-05-02T02:43:34.055Z,15.77
2019-05-02T02:46:17.627Z,26.97
2019-05-02T02:48:57.716Z,35.70
2019-05-02T02:51:37.632Z,25.80
2019-05-02T02:54:17.956Z,19.23
2019-05-02T02:56:58.371Z,13.87
2019-05-02T02:59:38.394Z,13.50
2019-05-02T03:02:18.190Z,16.67
2019-05-02T03:04:58.308Z,16.37
2019-05-02T03:07:38.609Z,21.10
2019-05-02T03:10:19.678Z,24.63
2019-05-02T03:13:21.922Z,25.07
2019-05-02T03:16:07.094Z,20.50
2019-05-02T03:18:44.886Z,15.90
2019-05-02T03:21:25.055Z,13.43
2019-05-02T03:24:05.827Z,11.20
2019-05-02T03:26:48.768Z,14.87
2019-05-02T03:29:39.696Z,16.50
2019-05-02T03:32:22.128Z,18.13
2019-05-02T03:34:53.924Z,21.23
2019-05-02T03:37:34.911Z,20.13
2019-05-02T03:40:15.679Z,25.70
2019-05-02T03:42:55.762Z,23.92
2019-05-02T03:45:40.186Z,21.10
2019-05-02T03:48:24.958Z,18.20
2019-05-02T03:50:59.963Z,17.15
2019-05-02T03:53:40.237Z,13.57
2019-05-02T03:56:20.128Z,13.63
2019-05-02T03:59:00.395Z,16.70
2019-05-02T04:01:41.851Z,22.93
2019-05-02T04:04:23.606Z,18.37
2019-05-02T04:07:03.760Z,18.42
2019-05-02T04:09:44.077Z,17.37
2019-05-02T04:12:24.275Z,17.82
2019-05-02T04:15:04.186Z,19.32
2019-05-02T04:17:44.418Z,19.87
2019-05-02T04:20:25.718Z,16.25
2019-05-02T04:23:05.746Z,15.67
2019-05-02T04:25:45.803Z,15.60
2019-05-02T04:28:26.128Z,13.60
2019-05-02T04:31:06.667Z,14.55
2019-05-02T04:33:46.334Z,13.83
2019-05-02T04:36:26.949Z,13.23
2019-05-02T04:39:15.125Z,14.93
2019-05-02T04:41:49.491Z,15.45
2019-05-02T04:44:43.592Z,13.83
2019-05-02T04:47:21.921Z,12.30
2019-05-02T04:50:00.117Z,13.27
2019-05-02T04:52:50.008Z,13.70
2019-05-02T04:55:30.285Z,13.63
2019-05-02T04:58:08.329Z,14.90
2019-05-02T05:00:59.259Z,14.30
2019-05-02T05:03:38.360Z,13.40
2019-05-02T05:06:21.835Z,14.57
2019-05-02T05:09:12.695Z,15.63
2019-05-02T05:11:48.214Z,13.43
2019-05-02T05:14:31.361Z,13.83
2019-05-02T05:17:10.825Z,12.70
2019-05-02T05:19:50.902Z,15.07
2019-05-02T05:22:31.265Z,14.50
2019-05-02T05:25:21.193Z,13.87
2019-05-02T05:28:05.631Z,14.53
2019-05-02T05:30:45.076Z,14.73
2019-05-02T05:33:24.489Z,15.80
2019-05-02T05:36:04.190Z,16.93
2019-05-02T05:38:44.265Z,15.50
2019-05-02T05:41:24.538Z,16.20
2019-05-02T05:44:04.431Z,16.23
2019-05-02T05:46:46.981Z,17.20
2019-05-02T05:49:28.302Z,19.80
2019-05-02T05:52:00.665Z,18.07
2019-05-02T05:54:47.071Z,17.80
2019-05-02T05:57:34.418Z,18.00
2019-05-02T06:00:18.672Z,19.47
2019-05-02T06:03:09.117Z,21.07
2019-05-02T06:05:41.158Z,21.53
2019-05-02T06:08:20.977Z,20.63
2019-05-02T06:11:02.082Z,19.07
2019-05-02T06:13:42.881Z,18.97
2019-05-02T06:16:26.767Z,20.90
2019-05-02T06:19:07.302Z,20.20
2019-05-02T06:21:48.324Z,21.00
2019-05-02T06:24:28.429Z,24.67
2019-05-02T06:27:07.927Z,23.73
2019-05-02T06:29:51.198Z,21.20
2019-05-02T06:32:30.300Z,23.30
2019-05-02T06:35:10.591Z,24.97
2019-05-02T06:37:52.027Z,26.27
2019-05-02T06:40:33.927Z,28.37
2019-05-02T06:43:14.605Z,26.13
2019-05-02T06:45:55.145Z,27.23
2019-05-02T06:48:35.196Z,30.10
2019-05-02T06:51:19.531Z,30.10
2019-05-02T06:53:57.809Z,30.07
2019-05-02T06:56:38.467Z,31.53
2019-05-02T06:59:20.284Z,29.23
2019-05-02T07:02:00.743Z,32.77
2019-05-02T07:04:40.694Z,30.80
2019-05-02T07:07:25.106Z,30.63
2019-05-02T07:09:50.137Z,31.27
2019-05-02T07:12:36.850Z,30.40
2019-05-02T07:18:55.281Z,32.73
2019-05-02T07:21:34.920Z,31.17
2019-05-02T07:24:15.334Z,32.87
2019-05-02T07:26:56.944Z,33.50
2019-05-02T07:29:37.909Z,35.73
2019-05-02T07:32:22.806Z,34.37
2019-05-02T07:34:59.477Z,33.70
2019-05-02T07:37:39.274Z,34.90
2019-05-02T07:40:19.284Z,36.17
2019-05-02T07:42:59.597Z,37.30
2019-05-02T07:45:40.337Z,34.33
2019-05-02T07:48:21.633Z,35.67
2019-05-02T07:51:01.673Z,35.10
2019-05-02T07:53:44.535Z,32.23
2019-05-02T07:56:23.845Z,36.27
2019-05-02T07:59:03.563Z,35.57
2019-05-02T08:01:45.049Z,35.63
2019-05-02T08:04:26.795Z,34.53
2019-05-02T08:07:07.257Z,36.03
2019-05-02T08:09:47.477Z,36.03
2019-05-02T08:12:27.373Z,37.90
2019-05-02T08:15:13.167Z,36.87
2019-05-02T08:17:53.745Z,37.10
2019-05-02T08:20:31.443Z,39.83
2019-05-02T08:23:13.594Z,40.47
2019-05-02T08:25:53.834Z,38.73
2019-05-02T08:28:39.957Z,39.00
2019-05-02T08:31:20.991Z,37.90
2019-05-02T08:34:05.752Z,37.10
2019-05-02T08:36:43.585Z,39.00
2019-05-02T08:39:25.915Z,39.63
2019-05-02T08:42:05.841Z,39.90
2019-05-02T08:44:51.076Z,39.13
2019-05-02T08:47:28.760Z,39.27
2019-05-02T08:50:09.767Z,41.70
2019-05-02T08:52:49.869Z,40.17
2019-05-02T08:55:31.041Z,41.80
2019-05-02T08:58:14.778Z,41.27
2019-05-02T09:00:52.915Z,40.70
2019-05-02T09:03:38.885Z,43.80
2019-05-02T09:06:17.170Z,40.40
2019-05-02T09:08:57.206Z,41.50
2019-05-02T09:11:37.421Z,42.57
2019-05-02T09:14:17.546Z,44.33
2019-05-02T09:17:00.365Z,44.40
2019-05-02T09:19:39.805Z,41.33
2019-05-02T09:22:22.074Z,42.37
2019-05-02T09:25:02.397Z,43.57
2019-05-02T09:27:43.302Z,40.80
2019-05-02T09:30:25.808Z,42.83
2019-05-02T09:33:06.750Z,45.07
2019-05-02T09:35:47.622Z,42.90
2019-05-02T09:38:27.470Z,45.33
2019-05-02T09:41:16.914Z,44.63
2019-05-02T09:43:38.961Z,43.50
2019-05-02T09:46:32.913Z,45.47
2019-05-02T09:49:16.386Z,44.20
2019-05-02T09:51:59.166Z,42.43
2019-05-02T09:54:41.439Z,44.10
2019-05-02T09:57:18.849Z,41.93
2019-05-02T09:59:58.776Z,40.53
2019-05-02T10:02:39.374Z,44.33
2019-05-02T10:05:19.521Z,43.30
2019-05-02T10:08:02.953Z,41.03
2019-05-02T10:10:45.804Z,41.57
2019-05-02T10:13:24.750Z,42.23
2019-05-02T10:16:04.617Z,38.27
2019-05-02T10:18:44.901Z,41.23
2019-05-02T10:21:26.349Z,39.90
2019-05-02T10:24:06.507Z,40.03
2019-05-02T10:26:46.350Z,38.23
2019-05-02T10:29:28.450Z,37.13
2019-05-02T10:32:15.034Z,43.63
2019-05-02T10:34:55.231Z,41.17
2019-05-02T10:37:38.335Z,37.27
2019-05-02T10:40:17.094Z,39.57
2019-05-02T10:42:56.623Z,37.20
2019-05-02T10:45:38.088Z,36.10
2019-05-02T10:48:25.909Z,36.33
2019-05-02T10:51:19.669Z,35.80
2019-05-02T10:54:00.004Z,33.10
2019-05-02T10:56:42.249Z,35.43
2019-05-02T10:59:22.882Z,34.70
2019-05-02T11:02:25.059Z,32.47
2019-05-02T11:05:11.959Z,31.90
2019-05-02T11:08:06.196Z,31.87
2019-05-02T11:10:46.199Z,32.00
2019-05-02T11:16:56.721Z,33.70
2019-05-02T11:20:09.013Z,34.13
2019-05-02T11:22:52.069Z,31.67
2019-05-02T11:25:32.015Z,34.87
2019-05-02T11:28:12.454Z,34.10
2019-05-02T11:30:52.753Z,30.50
2019-05-02T11:33:35.004Z,30.80
2019-05-02T11:36:14.746Z,31.87
2019-05-02T11:39:03.546Z,30.50
2019-05-02T11:41:37.061Z,30.10
2019-05-02T11:44:17.166Z,32.03
2019-05-02T11:46:56.741Z,30.97
2019-05-02T11:49:36.961Z,30.50
2019-05-02T11:52:18.065Z,32.80
2019-05-02T11:54:58.982Z,30.60
2019-05-02T11:57:38.627Z,28.70
2019-05-02T12:00:18.834Z,30.50
2019-05-02T12:03:18.396Z,33.13
2019-05-02T12:05:58.979Z,30.63
2019-05-02T12:08:39.474Z,32.90
2019-05-02T12:11:22.614Z,33.73
2019-05-02T12:14:03.025Z,36.07
2019-05-02T12:16:43.406Z,34.90
2019-05-02T12:19:23.223Z,36.60
2019-05-02T12:22:07.123Z,33.27
2019-05-02T12:24:47.815Z,34.63
2019-05-02T12:27:27.567Z,31.90
2019-05-02T12:30:07.571Z,33.77
2019-05-02T12:32:48.025Z,33.13
2019-05-02T12:35:28.028Z,31.50
2019-05-02T12:38:08.578Z,31.10
2019-05-02T12:40:48.580Z,31.17
2019-05-02T12:43:28.856Z,30.93
2019-05-02T12:46:08.792Z,33.20
2019-05-02T12:48:49.234Z,31.50
2019-05-02T12:51:28.994Z,32.27
2019-05-02T12:54:09.329Z,31.53
2019-05-02T12:56:50.067Z,30.60
2019-05-02T12:59:32.094Z,31.67
2019-05-02T13:02:19.289Z,28.80
2019-05-02T13:04:59.455Z,27.40
2019-05-02T13:07:42.879Z,24.23
2019-05-02T13:13:39.520Z,26.77
2019-05-02T13:16:22.556Z,27.67
2019-05-02T13:19:06.017Z,25.30
2019-05-02T13:25:04.344Z,25.57
2019-05-02T13:27:48.120Z,23.73
2019-05-02T13:37:02.811Z,25.03
2019-05-02T13:42:58.428Z,22.80
2019-05-02T13:46:02.239Z,21.97
2019-05-02T13:49:02.947Z,21.10
2019-05-02T13:51:43.434Z,20.30
2019-05-02T13:54:23.431Z,18.40
2019-05-02T13:57:03.331Z,20.57
2019-05-02T13:59:43.355Z,19.70
2019-05-02T14:02:23.577Z,20.77
2019-05-02T14:05:03.237Z,21.30
2019-05-02T14:07:48.343Z,19.87
2019-05-02T14:10:39.501Z,18.70
2019-05-02T14:13:14.523Z,21.10
2019-05-02T14:15:55.073Z,18.40
2019-05-02T14:18:35.085Z,19.27
2019-05-02T14:21:14.785Z,17.70
2019-05-02T14:23:55.077Z,18.17
2019-05-02T14:26:34.981Z,18.43
2019-05-02T14:29:16.324Z,17.07
2019-05-02T14:31:56.221Z,15.23
2019-05-02T14:34:55.814Z,14.93
2019-05-02T14:37:35.799Z,14.40
2019-05-02T14:43:46.197Z,12.37
2019-05-02T14:46:28.806Z,16.27
2019-05-02T14:49:08.726Z,15.30
2019-05-02T14:51:49.161Z,14.57
2019-05-02T14:54:28.856Z,14.93
2019-05-02T14:57:17.286Z,13.43
2019-05-02T14:59:59.342Z,14.40
2019-05-02T15:02:45.005Z,14.47
2019-05-02T15:05:45.507Z,10.30
2019-05-02T15:08:25.916Z,10.80
2019-05-02T15:11:05.877Z,11.73
2019-05-02T15:13:46.215Z,11.40
2019-05-02T15:16:39.369Z,11.33
2019-05-02T15:19:07.874Z,11.70
2019-05-02T15:21:54.375Z,12.30
2019-05-02T15:24:33.358Z,12.90
2019-05-02T15:27:16.645Z,12.63
2019-05-02T15:30:00.810Z,12.27
2019-05-02T15:32:54.722Z,12.07
2019-05-02T15:35:57.252Z,12.63
2019-05-02T15:38:37.105Z,13.60
2019-05-02T15:41:18.542Z,12.73
2019-05-02T15:43:59.330Z,13.43
2019-05-02T15:46:40.250Z,14.27
2019-05-02T15:49:20.015Z,14.30
2019-05-02T15:52:00.335Z,11.60
2019-05-02T15:54:42.521Z,12.23
2019-05-02T15:57:24.817Z,12.30
2019-05-02T16:00:05.198Z,12.33
2019-05-02T16:02:46.322Z,12.80
2019-05-02T16:05:26.553Z,13.17
2019-05-02T16:08:08.833Z,13.67
2019-05-02T16:10:48.817Z,14.57
2019-05-02T16:13:29.279Z,14.40
2019-05-02T16:16:09.538Z,12.83
2019-05-02T16:18:49.574Z,12.70
2019-05-02T16:21:35.667Z,13.07
2019-05-02T16:24:19.161Z,14.37
2019-05-02T16:27:01.500Z,17.80
2019-05-02T16:29:42.137Z,16.10
2019-05-02T16:35:33.929Z,16.17
2019-05-02T16:38:14.414Z,15.33
2019-05-02T16:40:54.885Z,16.03
2019-05-02T16:43:35.122Z,17.80
2019-05-02T16:46:15.418Z,15.33
2019-05-02T16:48:43.643Z,15.07
2019-05-02T16:51:34.410Z,15.50
2019-05-02T16:54:34.613Z,13.17
2019-05-02T16:57:17.521Z,13.50
2019-05-02T17:00:01.231Z,14.50
2019-05-02T17:02:43.595Z,12.33
2019-05-02T17:05:22.621Z,13.53
2019-05-02T17:11:34.199Z,13.97
2019-05-02T17:14:18.953Z,13.17
2019-05-02T17:16:59.363Z,13.27
2019-05-02T17:19:39.329Z,12.40
2019-05-02T17:22:21.931Z,13.57
2019-05-02T17:25:02.371Z,13.50
2019-05-02T17:27:44.645Z,13.60
2019-05-02T17:30:24.801Z,13.00
2019-05-02T17:32:52.287Z,13.67
2019-05-02T17:35:43.357Z,14.20
2019-05-02T17:38:29.313Z,13.70
2019-05-02T17:41:08.988Z,13.83
2019-05-02T17:43:49.352Z,14.53
2019-05-02T17:46:28.975Z,13.60
2019-05-02T17:49:09.291Z,15.47
2019-05-02T17:52:19.133Z,13.33
2019-05-02T17:55:14.019Z,13.73
2019-05-02T17:57:54.302Z,14.30
2019-05-02T18:00:37.969Z,15.30
2019-05-02T18:03:18.086Z,13.27
2019-05-02T18:05:58.307Z,15.27
2019-05-02T18:08:38.944Z,15.77
2019-05-02T18:11:19.643Z,15.50
2019-05-02T18:13:59.316Z,17.50
2019-05-02T18:16:39.445Z,16.87
2019-05-02T18:19:21.838Z,16.40
2019-05-02T18:21:48.826Z,16.67
2019-05-02T18:24:37.433Z,14.73
2019-05-02T18:27:38.332Z,17.43
2019-05-02T18:30:22.864Z,16.93
2019-05-02T18:33:03.496Z,17.07
2019-05-02T18:35:46.903Z,16.77
2019-05-02T18:38:25.737Z,16.50
2019-05-02T18:41:07.840Z,17.40
2019-05-02T18:43:48.492Z,16.80
2019-05-02T18:46:28.501Z,16.30
2019-05-02T18:49:08.302Z,17.07
2019-05-02T18:51:53.781Z,17.20
2019-05-02T18:54:30.426Z,15.87
2019-05-02T18:57:11.923Z,17.37
2019-05-02T18:59:52.056Z,16.20
2019-05-02T19:02:35.668Z,17.73
2019-05-02T19:05:05.927Z,16.47
2019-05-02T19:07:56.224Z,19.17
2019-05-02T19:10:37.068Z,17.93
2019-05-02T19:13:22.115Z,17.93
2019-05-02T19:16:02.437Z,19.87
2019-05-02T19:18:42.635Z,19.90
2019-05-02T19:21:26.343Z,18.90
2019-05-02T19:23:51.804Z,19.03
2019-05-02T19:26:41.586Z,20.07
2019-05-02T19:29:27.793Z,18.67
2019-05-02T19:32:12.224Z,18.80
2019-05-02T19:34:53.187Z,18.03
2019-05-02T19:37:36.275Z,21.00
2019-05-02T19:40:20.134Z,21.60
2019-05-02T19:43:03.347Z,20.20
2019-05-02T19:45:40.350Z,20.70
2019-05-02T19:48:22.541Z,20.23
2019-05-02T19:51:03.035Z,20.33
2019-05-02T19:53:42.745Z,21.60
2019-05-02T19:56:22.813Z,21.80
2019-05-02T19:59:02.923Z,21.90
2019-05-02T20:01:42.978Z,21.20
2019-05-02T20:04:24.866Z,21.17
2019-05-02T20:07:05.434Z,20.60
2019-05-02T20:09:48.287Z,21.83
2019-05-02T20:12:29.198Z,21.03
2019-05-02T20:15:09.335Z,21.87
2019-05-02T20:17:55.286Z,21.97
2019-05-02T20:20:35.853Z,21.13
2019-05-02T20:23:18.756Z,20.97
2019-05-02T20:25:58.225Z,21.50
2019-05-02T20:28:39.088Z,20.07
2019-05-02T20:31:18.759Z,22.80
2019-05-02T20:33:58.861Z,22.43
2019-05-02T20:36:39.434Z,23.17
2019-05-02T20:39:19.297Z,22.47
2019-05-02T20:41:59.142Z,21.03
2019-05-02T20:44:39.366Z,22.43
2019-05-02T20:47:21.883Z,22.57
2019-05-02T20:50:02.658Z,22.50
2019-05-02T20:52:44.125Z,21.67
2019-05-02T20:55:24.242Z,20.93
2019-05-02T20:58:04.281Z,19.70
2019-05-02T21:00:44.162Z,20.37
2019-05-02T21:03:25.447Z,20.63
2019-05-02T21:06:12.328Z,18.97
2019-05-02T21:09:33.402Z,16.60
2019-05-02T21:12:13.805Z,16.57
2019-05-02T21:14:53.934Z,14.70
2019-05-02T21:17:34.429Z,15.87
2019-05-02T21:20:17.562Z,15.90
2019-05-02T21:22:58.286Z,15.33
2019-05-02T21:25:38.506Z,14.83
2019-05-02T21:28:18.662Z,14.57
2019-05-02T21:31:00.614Z,14.37
2019-05-02T21:33:42.491Z,14.90
2019-05-02T21:36:23.183Z,13.30
2019-05-02T21:39:04.602Z,13.20
2019-05-02T21:41:47.281Z,14.80
2019-05-02T21:44:27.890Z,14.87
2019-05-02T21:47:08.321Z,14.03
2019-05-02T21:53:36.142Z,14.53
2019-05-02T21:56:21.830Z,14.13
2019-05-02T21:59:04.650Z,12.77
2019-05-02T22:01:49.280Z,13.10
2019-05-02T22:04:29.037Z,13.77
2019-05-02T22:07:09.226Z,14.23
2019-05-02T22:09:49.074Z,13.07
2019-05-02T22:12:29.329Z,14.20
2019-05-02T22:15:12.777Z,13.73
2019-05-02T22:17:52.687Z,15.43
2019-05-02T22:20:32.674Z,15.40
2019-05-02T22:23:12.949Z,15.80
2019-05-02T22:25:53.191Z,15.10
2019-05-02T22:28:33.533Z,16.77
2019-05-02T22:31:13.820Z,16.17
2019-05-02T22:33:53.330Z,19.80
2019-05-02T22:36:33.423Z,17.80
2019-05-02T22:39:33.405Z,18.80
2019-05-02T22:42:13.690Z,19.40
2019-05-02T22:44:53.313Z,18.40
2019-05-02T22:47:33.675Z,19.83
2019-05-02T22:50:14.170Z,18.57
2019-05-02T22:52:54.586Z,19.20
2019-05-02T22:55:34.477Z,21.10
2019-05-02T22:58:14.768Z,20.47
2019-05-02T23:00:54.660Z,21.17
2019-05-02T23:03:34.741Z,20.23
2019-05-02T23:06:15.761Z,19.10
2019-05-02T23:08:55.638Z,19.27
2019-05-02T23:11:38.070Z,21.30
2019-05-02T23:14:18.177Z,21.30
2019-05-02T23:16:58.120Z,20.80
2019-05-02T23:19:42.344Z,20.50
2019-05-02T23:22:22.567Z,22.37
2019-05-02T23:25:22.642Z,21.17
2019-05-02T23:28:07.321Z,19.70
2019-05-02T23:30:47.752Z,18.80
2019-05-02T23:33:47.605Z,19.80
2019-05-02T23:36:28.513Z,21.70
2019-05-02T23:39:08.357Z,21.77
2019-05-02T23:41:49.931Z,23.00
2019-05-02T23:44:30.909Z,21.77
2019-05-02T23:47:11.759Z,23.97
2019-05-02T23:49:52.332Z,21.47
2019-05-02T23:52:32.091Z,23.83
2019-05-02T23:55:12.909Z,23.60
2019-05-02T23:57:52.736Z,24.13
